Impacts METAR Board
IDs:

KCFD - Bryan/Coulter Fld, TX, US

Updated at: 0000 UTC 30 May 2020
Potential Impact None Slight Moderate High
Time 29/12Z 29/13Z 29/14Z 29/15Z 29/16Z 29/17Z 29/18Z 29/19Z 29/20Z 29/21Z 29/22Z 29/23Z 30/00Z
Temp70 74 77 79 81 82 84 85 87 87 87 86 84
Dewpt69 70 69 69 68 69 68 66 64 62 61 60 62
Altim30.08 30.10 30.11 30.11 30.10 30.10 30.09 30.11 30.10 30.09 30.07 30.07 30.06
VIS10 10 10 10 10 10 10 7 10 10 10 10 10
CIG-- -- -- -- -- -- -- -- -- -- -- -- --
CoverCLRCLRCLRCLRSCTSCTCLRSCTSCTCLRCLRCLRCLR
FltCatVFRVFRVFRVFRVFRVFRVFRVFRVFRVFRVFRVFRVFR
WX--------------------------
WDir36020101010340350102020102020
WSpd5 4 10 9 6 8 8 9 9 10 10 9 8
WGst-- -- -- -- -- -- -- 16 17 16 17 16 --
Raw hourly METARs
KCFD 291155Z AUTO 36005KT 10SM CLR 21/21 A3008 RMK AO2 T02120205 10229 20210
KCFD 291255Z AUTO 02004KT 10SM CLR 23/21 A3010 RMK AO2 T02310209
KCFD 291355Z AUTO 01010KT 10SM CLR 25/20 A3011 RMK AO2 T02480204
KCFD 291455Z AUTO 01009KT 10SM CLR 26/21 A3011 RMK AO2 T02610208
KCFD 291555Z AUTO 01006KT 10SM SCT024 27/20 A3010 RMK AO2 T02700202
KCFD 291655Z AUTO 34008KT 10SM SCT031 28/20 A3010 RMK AO2 T02780204
KCFD 291755Z AUTO 35008KT 10SM CLR 29/20 A3009 RMK AO2 T02870201 10287 20213
KCFD 291855Z AUTO 01009G16KT 7SM SCT048 30/19 A3011 RMK AO2 T02960191
KCFD 291955Z AUTO 02009G17KT 10SM SCT050 31/18 A3010 RMK AO2 T03050175
KCFD 292055Z AUTO 02010G16KT 10SM CLR 31/16 A3009 RMK AO2 T03070164
KCFD 292155Z AUTO 01010G17KT 10SM CLR 31/16 A3007 RMK AO2 T03080159
KCFD 292255Z AUTO 02009G16KT 10SM CLR 30/16 A3007 RMK AO2 T03000156
KCFD 292355Z AUTO 02008KT 10SM CLR 29/17 A3006 RMK AO2 T02900165 10312 20287